GMML

Hassan I Airport

El Aaiún, Western Sahara
METAR GMML 251400Z 04005KT CAVOK 37/12 Q1015 NOSIG
Observed Flight Rules
Sep-25 @ 14:00 UTC (an hour ago) Visual Flight Rules
Wind Visibility Clouds
40° at 5 knots 10,000+ meters
  • Clear skies
Temperatures Readings
Current 37°C / 99°F
Dewpoint 12°C / 54°F
Humidity 22%
Altimeter 29.97" Hg
Pressure 1015 hPa
Elevation 6
METAR GMML 251400Z 04005KT CAVOK 37/12 Q1015 NOSIG
Observed Flight Rules
Sep-25 @ 14:00 UTC
(an hour ago)
VFR
Wind Visibility
40° at 5 knots 10,000+ meters
Clouds
  • Clear skies
Temperature Dewpoint
37°C / 99°F 12°C / 54°F
Humidity Altimeter Pressure
22% 29.97" Hg 1015 hPa